TimeEST,TemperatureF,Dew PointF,Humidity,Sea Level PressureIn,VisibilityMPH,Wind Direction,Wind SpeedMPH,Gust SpeedMPH,PrecipitationIn,Events,Conditions,WindDirDegrees,DateUTC
12:54 AM,15.1,7.0,70,30.13,10.0,WNW,15.0,23.0,N/A,,Overcast,290,2013-02-02 05:54:00
1:27 AM,15.8,3.2,58,30.07,10.0,WNW,16.1,33.4,N/A,,Overcast,290,2013-02-02 06:27:00
1:54 AM,14.0,3.0,62,30.15,10.0,WNW,8.1,24.2,N/A,,Partly Cloudy,300,2013-02-02 06:54:00
2:54 AM,12.9,1.0,59,30.16,10.0,West,9.2,21.9,N/A,,Clear,280,2013-02-02 07:54:00
3:54 AM,12.0,1.0,61,30.18,10.0,WNW,9.2,-,N/A,,Clear,300,2013-02-02 08:54:00
4:54 AM,10.9,1.0,64,30.19,10.0,NW,5.8,-,N/A,,Clear,310,2013-02-02 09:54:00
5:54 AM,10.0,1.9,70,30.19,10.0,West,5.8,-,N/A,,Clear,280,2013-02-02 10:54:00
6:47 AM,10.4,1.4,67,30.11,10.0,West,4.6,-,N/A,,Mostly Cloudy,270,2013-02-02 11:47:00
6:54 AM,10.9,1.9,67,30.20,10.0,West,3.5,-,N/A,,Mostly Cloudy,270,2013-02-02 11:54:00
7:33 AM,10.4,3.2,73,30.13,10.0,Calm,Calm,-,N/A,,Scattered Clouds,0,2013-02-02 12:33:00
7:54 AM,12.0,3.9,70,30.21,10.0,Calm,Calm,-,N/A,,Clear,0,2013-02-02 12:54:00
8:54 AM,15.1,3.0,59,30.20,10.0,Calm,Calm,-,N/A,,Clear,0,2013-02-02 13:54:00
9:54 AM,17.1,6.1,62,30.19,10.0,South,3.5,-,N/A,,Clear,170,2013-02-02 14:54:00
10:54 AM,19.0,5.0,54,30.17,10.0,SSW,8.1,17.3,N/A,,Scattered Clouds,200,2013-02-02 15:54:00
11:54 AM,21.0,6.1,53,30.12,10.0,WSW,9.2,-,N/A,,Scattered Clouds,240,2013-02-02 16:54:00
12:54 PM,24.1,3.0,40,30.07,10.0,SSW,8.1,17.3,N/A,,Mostly Cloudy,200,2013-02-02 17:54:00
1:54 PM,24.1,1.9,38,30.05,10.0,WSW,13.8,21.9,N/A,,Overcast,240,2013-02-02 18:54:00
2:54 PM,23.0,1.0,39,30.04,10.0,SW,16.1,20.7,N/A,,Overcast,220,2013-02-02 19:54:00
3:54 PM,23.0,3.0,42,30.02,10.0,SW,10.4,-,N/A,,Overcast,220,2013-02-02 20:54:00
4:54 PM,21.9,3.9,46,30.02,10.0,SSW,9.2,18.4,N/A,,Mostly Cloudy,200,2013-02-02 21:54:00
5:54 PM,21.9,3.0,44,30.03,10.0,SW,8.1,-,N/A,,Partly Cloudy,230,2013-02-02 22:54:00
6:54 PM,21.0,5.0,50,30.03,10.0,SSW,10.4,18.4,N/A,,Overcast,200,2013-02-02 23:54:00
7:54 PM,19.9,7.0,57,30.03,10.0,SW,8.1,-,N/A,,Overcast,220,2013-02-03 00:54:00
8:41 PM,19.4,10.4,68,29.96,2.5,SW,9.2,-,0.00,Snow,Light Snow,230,2013-02-03 01:41:00
8:54 PM,19.0,10.9,71,30.04,2.5,WSW,8.1,-,0.00,Snow,Light Snow,240,2013-02-03 01:54:00
9:07 PM,17.6,10.4,73,29.96,2.5,WSW,9.2,-,0.00,Snow,Light Snow,240,2013-02-03 02:07:00
9:25 PM,17.6,12.2,79,29.97,3.0,SW,4.6,-,0.00,Snow,Light Snow,230,2013-02-03 02:25:00
9:38 PM,17.6,12.2,79,29.96,2.5,SW,4.6,-,0.00,Snow,Light Snow,220,2013-02-03 02:38:00
9:54 PM,18.0,12.9,81,30.03,3.0,WSW,6.9,-,0.00,Snow,Light Snow,240,2013-02-03 02:54:00
10:07 PM,17.6,14.0,86,29.96,2.0,WSW,4.6,-,0.00,Snow,Light Snow,250,2013-02-03 03:07:00
10:25 PM,17.6,12.2,79,29.96,2.5,SW,4.6,-,0.00,Snow,Light Snow,230,2013-02-03 03:25:00
10:34 PM,17.6,12.2,79,29.96,4.0,SW,4.6,-,0.00,Snow,Light Snow,230,2013-02-03 03:34:00
10:54 PM,17.1,12.9,84,30.04,3.0,SW,4.6,-,0.00,Snow,Light Snow,230,2013-02-03 03:54:00
11:19 PM,17.6,12.2,79,29.96,2.5,SW,3.5,-,0.00,Snow,Light Snow,230,2013-02-03 04:19:00
11:32 PM,17.6,12.2,79,29.96,4.0,SW,4.6,-,0.00,Snow,Light Snow,220,2013-02-03 04:32:00
11:54 PM,17.1,12.9,84,30.03,5.0,SSW,3.5,-,0.00,Snow,Light Snow,210,2013-02-03 04:54:00